sensor_id;sensor_type;location;lat;lon;timestamp;pressure;altitude;pressure_sealevel;temperature;humidity
71903;BME280;59778;50.310;18.780;2023-04-25T00:05:50;97684.66;;;10.76;100.00
71903;BME280;59778;50.310;18.780;2023-04-25T00:21:12;97681.47;;;10.61;100.00
71903;BME280;59778;50.310;18.780;2023-04-25T00:36:33;97680.00;;;10.59;100.00
71903;BME280;59778;50.310;18.780;2023-04-25T00:51:55;97683.81;;;10.76;100.00
71903;BME280;59778;50.310;18.780;2023-04-25T01:07:17;97687.78;;;10.24;100.00
71903;BME280;59778;50.310;18.780;2023-04-25T01:22:38;97697.13;;;9.97;100.00
71903;BME280;59778;50.310;18.780;2023-04-25T01:38:00;97719.31;;;9.87;98.50
71903;BME280;59778;50.310;18.780;2023-04-25T01:53:21;97714.72;;;9.81;100.00
71903;BME280;59778;50.310;18.780;2023-04-25T02:08:43;97724.34;;;9.83;100.00
71903;BME280;59778;50.310;18.780;2023-04-25T02:24:05;97731.78;;;9.43;100.00
71903;BME280;59778;50.310;18.780;2023-04-25T02:39:26;97732.19;;;9.40;99.77
71903;BME280;59778;50.310;18.780;2023-04-25T02:54:48;97733.31;;;9.13;96.19
71903;BME280;59778;50.310;18.780;2023-04-25T03:10:10;97734.34;;;9.19;94.20
71903;BME280;59778;50.310;18.780;2023-04-25T03:25:31;97723.75;;;9.11;92.49
71903;BME280;59778;50.310;18.780;2023-04-25T03:40:53;97744.00;;;8.88;91.25
71903;BME280;59778;50.310;18.780;2023-04-25T03:56:15;97755.03;;;9.00;91.94
71903;BME280;59778;50.310;18.780;2023-04-25T04:11:37;97760.88;;;8.84;91.08
71903;BME280;59778;50.310;18.780;2023-04-25T04:26:59;97764.19;;;8.99;90.12
71903;BME280;59778;50.310;18.780;2023-04-25T04:42:20;97773.75;;;9.02;89.99
71903;BME280;59778;50.310;18.780;2023-04-25T04:57:42;97776.66;;;8.93;87.38
71903;BME280;59778;50.310;18.780;2023-04-25T05:13:03;97779.56;;;9.05;86.05
71903;BME280;59778;50.310;18.780;2023-04-25T05:28:25;97775.78;;;9.39;84.34
71903;BME280;59778;50.310;18.780;2023-04-25T05:43:46;97788.13;;;9.15;84.70
71903;BME280;59778;50.310;18.780;2023-04-25T05:59:10;97789.38;;;9.19;83.93
71903;BME280;59778;50.310;18.780;2023-04-25T06:14:31;97798.75;;;9.23;83.23
71903;BME280;59778;50.310;18.780;2023-04-25T06:29:53;97802.66;;;9.47;82.70
71903;BME280;59778;50.310;18.780;2023-04-25T06:45:14;97807.31;;;9.84;81.56
71903;BME280;59778;50.310;18.780;2023-04-25T07:00:35;97799.44;;;9.83;80.70
71903;BME280;59778;50.310;18.780;2023-04-25T07:15:57;97784.44;;;9.74;78.54
71903;BME280;59778;50.310;18.780;2023-04-25T07:31:18;97793.69;;;10.11;76.28
71903;BME280;59778;50.310;18.780;2023-04-25T07:46:39;97804.22;;;10.32;74.85
71903;BME280;59778;50.310;18.780;2023-04-25T08:02:01;97794.09;;;11.26;71.04
71903;BME280;59778;50.310;18.780;2023-04-25T08:17:23;97797.00;;;11.50;71.05
71903;BME280;59778;50.310;18.780;2023-04-25T08:32:44;97795.59;;;11.47;66.12
71903;BME280;59778;50.310;18.780;2023-04-25T08:48:12;97802.59;;;11.37;64.88
71903;BME280;59778;50.310;18.780;2023-04-25T09:03:35;97797.00;;;11.74;64.51
71903;BME280;59778;50.310;18.780;2023-04-25T09:18:56;97797.38;;;11.78;61.55
71903;BME280;59778;50.310;18.780;2023-04-25T09:34:17;97804.47;;;11.97;59.88
71903;BME280;59778;50.310;18.780;2023-04-25T09:49:40;97798.19;;;11.78;57.63
71903;BME280;59778;50.310;18.780;2023-04-25T10:05:05;97806.06;;;12.05;60.49
71903;BME280;59778;50.310;18.780;2023-04-25T10:20:29;97798.13;;;12.03;60.17
71903;BME280;59778;50.310;18.780;2023-04-25T10:35:51;97792.00;;;11.90;57.00
71903;BME280;59778;50.310;18.780;2023-04-25T10:51:25;97805.34;;;12.09;56.80
71903;BME280;59778;50.310;18.780;2023-04-25T11:22:26;97798.19;;;12.15;57.72
71903;BME280;59778;50.310;18.780;2023-04-25T11:37:48;97808.19;;;12.33;56.63
71903;BME280;59778;50.310;18.780;2023-04-25T11:53:11;97805.91;;;12.00;56.46
71903;BME280;59778;50.310;18.780;2023-04-25T12:08:32;97786.00;;;11.63;56.06
71903;BME280;59778;50.310;18.780;2023-04-25T12:23:53;97796.38;;;12.09;56.84
71903;BME280;59778;50.310;18.780;2023-04-25T12:39:19;97792.97;;;12.13;55.66
71903;BME280;59778;50.310;18.780;2023-04-25T12:54:42;97793.28;;;11.87;56.53
71903;BME280;59778;50.310;18.780;2023-04-25T13:10:05;97791.09;;;11.96;57.18
71903;BME280;59778;50.310;18.780;2023-04-25T13:25:26;97781.84;;;12.15;55.46
71903;BME280;59778;50.310;18.780;2023-04-25T13:40:48;97781.06;;;12.97;56.84
71903;BME280;59778;50.310;18.780;2023-04-25T13:56:10;97769.88;;;12.75;54.08
71903;BME280;59778;50.310;18.780;2023-04-25T14:11:34;97783.53;;;13.92;52.53
71903;BME280;59778;50.310;18.780;2023-04-25T14:26:55;97764.84;;;13.72;50.41
71903;BME280;59778;50.310;18.780;2023-04-25T14:42:17;97769.97;;;13.34;52.76
71903;BME280;59778;50.310;18.780;2023-04-25T14:57:38;97793.22;;;12.42;56.13
71903;BME280;59778;50.310;18.780;2023-04-25T15:13:00;97783.72;;;13.62;53.44
71903;BME280;59778;50.310;18.780;2023-04-25T15:28:21;97797.41;;;12.97;53.77
71903;BME280;59778;50.310;18.780;2023-04-25T15:43:43;97813.66;;;12.62;56.93
71903;BME280;59778;50.310;18.780;2023-04-25T15:59:04;97805.84;;;13.07;53.46
71903;BME280;59778;50.310;18.780;2023-04-25T16:14:26;97809.69;;;12.47;54.59
71903;BME280;59778;50.310;18.780;2023-04-25T16:29:47;97824.81;;;12.72;53.08
71903;BME280;59778;50.310;18.780;2023-04-25T16:45:12;97824.63;;;12.26;52.61
71903;BME280;59778;50.310;18.780;2023-04-25T17:00:34;97836.00;;;11.87;53.40
71903;BME280;59778;50.310;18.780;2023-04-25T17:15:56;97840.75;;;11.48;54.53
71903;BME280;59778;50.310;18.780;2023-04-25T17:31:17;97864.25;;;11.18;57.16
71903;BME280;59778;50.310;18.780;2023-04-25T17:46:38;97888.69;;;10.86;58.75
71903;BME280;59778;50.310;18.780;2023-04-25T18:02:00;97914.53;;;10.64;60.82
71903;BME280;59778;50.310;18.780;2023-04-25T18:17:22;97925.09;;;10.34;62.61
71903;BME280;59778;50.310;18.780;2023-04-25T18:32:45;97958.09;;;10.12;64.60
71903;BME280;59778;50.310;18.780;2023-04-25T18:48:06;97985.06;;;10.07;65.20
71903;BME280;59778;50.310;18.780;2023-04-25T19:03:28;98007.59;;;9.55;66.87
71903;BME280;59778;50.310;18.780;2023-04-25T19:18:49;98016.16;;;9.71;67.44
71903;BME280;59778;50.310;18.780;2023-04-25T19:34:12;98030.03;;;9.16;69.35
71903;BME280;59778;50.310;18.780;2023-04-25T19:49:34;98039.44;;;9.33;70.53
71903;BME280;59778;50.310;18.780;2023-04-25T20:05:07;98057.78;;;9.24;71.33
71903;BME280;59778;50.310;18.780;2023-04-25T20:20:28;98065.41;;;9.01;74.00
71903;BME280;59778;50.310;18.780;2023-04-25T20:35:50;98087.72;;;9.03;75.54
71903;BME280;59778;50.310;18.780;2023-04-25T20:51:13;98106.56;;;8.83;76.46
71903;BME280;59778;50.310;18.780;2023-04-25T21:06:34;98110.72;;;8.79;76.64
71903;BME280;59778;50.310;18.780;2023-04-25T21:21:56;98123.94;;;8.61;72.73
71903;BME280;59778;50.310;18.780;2023-04-25T21:37:18;98142.97;;;7.97;81.18
71903;BME280;59778;50.310;18.780;2023-04-25T21:52:39;98146.31;;;7.57;87.54
71903;BME280;59778;50.310;18.780;2023-04-25T22:08:00;98153.69;;;7.48;87.95
71903;BME280;59778;50.310;18.780;2023-04-25T22:23:23;98158.34;;;7.54;85.58
71903;BME280;59778;50.310;18.780;2023-04-25T22:38:45;98167.59;;;7.67;86.72
71903;BME280;59778;50.310;18.780;2023-04-25T22:54:07;98186.50;;;7.45;84.72
71903;BME280;59778;50.310;18.780;2023-04-25T23:09:28;98194.63;;;7.31;84.02
71903;BME280;59778;50.310;18.780;2023-04-25T23:24:50;98211.66;;;7.46;83.53
71903;BME280;59778;50.310;18.780;2023-04-25T23:40:11;98224.44;;;7.37;82.47
71903;BME280;59778;50.310;18.780;2023-04-25T23:55:32;98234.47;;;7.43;81.08
